createdAt,value
2019-03-08T00:00:56.825Z,2.33
2019-03-08T00:04:05.237Z,2.35
2019-03-08T00:07:12.121Z,2.30
2019-03-08T00:10:19.205Z,2.52
2019-03-08T00:13:26.303Z,2.25
2019-03-08T00:16:34.215Z,2.50
2019-03-08T00:19:41.296Z,2.08
2019-03-08T00:22:49.672Z,2.45
2019-03-08T00:25:58.136Z,2.92
2019-03-08T00:29:05.062Z,1.80
2019-03-08T00:32:14.298Z,2.58
2019-03-08T00:35:21.155Z,2.08
2019-03-08T00:38:27.957Z,1.90
2019-03-08T00:41:34.899Z,2.75
2019-03-08T00:44:41.856Z,1.72
2019-03-08T00:47:48.708Z,1.80
2019-03-08T00:50:55.644Z,2.10
2019-03-08T00:54:02.486Z,2.20
2019-03-08T00:57:09.445Z,2.08
2019-03-08T01:00:18.486Z,3.47
2019-03-08T01:03:25.305Z,2.70
2019-03-08T01:06:32.423Z,2.80
2019-03-08T01:09:39.649Z,2.20
2019-03-08T01:12:46.518Z,2.30
2019-03-08T01:15:53.407Z,2.40
2019-03-08T01:19:02.181Z,2.25
2019-03-08T01:22:11.548Z,2.20
2019-03-08T01:25:18.706Z,1.90
2019-03-08T01:28:25.683Z,2.72
2019-03-08T01:31:32.559Z,2.15
2019-03-08T01:34:39.486Z,2.33
2019-03-08T01:37:49.244Z,2.02
2019-03-08T01:40:56.152Z,2.15
2019-03-08T01:44:05.979Z,2.37
2019-03-08T01:47:12.827Z,2.08
2019-03-08T01:50:19.679Z,2.27
2019-03-08T01:53:26.490Z,1.95
2019-03-08T01:56:33.398Z,1.95
2019-03-08T01:59:41.396Z,1.98
2019-03-08T02:02:48.602Z,2.17
2019-03-08T02:06:01.567Z,2.92
2019-03-08T02:09:08.766Z,2.90
2019-03-08T02:12:16.811Z,1.80
2019-03-08T02:15:23.730Z,3.98
2019-03-08T02:18:30.971Z,2.00
2019-03-08T02:21:38.205Z,2.40
2019-03-08T02:24:45.170Z,2.10
2019-03-08T02:27:53.696Z,2.20
2019-03-08T02:31:00.877Z,2.60
2019-03-08T02:34:08.933Z,2.52
2019-03-08T02:37:15.891Z,2.45
2019-03-08T02:40:34.301Z,2.35
2019-03-08T02:43:41.113Z,3.98
2019-03-08T02:46:47.907Z,3.17
2019-03-08T02:49:54.961Z,1.70
2019-03-08T02:53:01.724Z,1.98
2019-03-08T02:56:08.919Z,2.60
2019-03-08T02:59:15.781Z,2.60
2019-03-08T03:02:22.751Z,2.25
2019-03-08T03:05:29.592Z,1.90
2019-03-08T03:08:36.478Z,2.00
2019-03-08T03:11:43.336Z,2.25
2019-03-08T03:14:50.246Z,1.80
2019-03-08T03:17:57.134Z,2.75
2019-03-08T03:21:03.927Z,2.20
2019-03-08T03:24:11.765Z,1.62
2019-03-08T03:27:18.650Z,1.95
2019-03-08T03:30:26.064Z,1.85
2019-03-08T03:33:32.982Z,2.60
2019-03-08T03:36:39.990Z,2.10
2019-03-08T03:39:47.148Z,1.65
2019-03-08T03:42:53.945Z,1.85
2019-03-08T03:46:00.812Z,2.00
2019-03-08T03:49:08.669Z,2.00
2019-03-08T03:52:15.576Z,2.47
2019-03-08T03:55:23.960Z,1.80
2019-03-08T03:58:30.765Z,3.05
2019-03-08T04:01:42.745Z,1.67
2019-03-08T04:04:49.785Z,2.00
2019-03-08T04:07:56.663Z,2.55
2019-03-08T04:11:03.528Z,2.20
2019-03-08T04:14:10.352Z,1.87
2019-03-08T04:17:17.704Z,2.40
2019-03-08T04:20:24.458Z,2.27
2019-03-08T04:23:31.359Z,2.20
2019-03-08T04:26:38.435Z,2.22
2019-03-08T04:29:47.427Z,2.50
2019-03-08T04:32:54.419Z,1.72
2019-03-08T04:36:01.322Z,3.45
2019-03-08T04:39:10.806Z,2.05
2019-03-08T04:42:17.735Z,2.20
2019-03-08T04:45:24.635Z,2.20
2019-03-08T04:48:31.543Z,1.90
2019-03-08T04:51:38.311Z,2.25
2019-03-08T04:54:45.202Z,2.77
2019-03-08T04:57:51.972Z,2.00
2019-03-08T05:00:58.855Z,2.70
2019-03-08T05:04:05.700Z,2.20
2019-03-08T05:07:12.680Z,2.20
2019-03-08T05:10:19.818Z,2.62
2019-03-08T05:13:26.634Z,1.90
2019-03-08T05:16:33.614Z,2.10
2019-03-08T05:19:47.381Z,1.95
2019-03-08T05:22:54.143Z,2.22
2019-03-08T05:26:00.963Z,2.80
2019-03-08T05:29:08.168Z,2.40
2019-03-08T05:32:15.081Z,1.98
2019-03-08T05:35:21.951Z,2.08
2019-03-08T05:38:29.932Z,2.37
2019-03-08T05:41:40.039Z,2.08
2019-03-08T05:44:46.882Z,2.25
2019-03-08T05:47:56.642Z,2.65
2019-03-08T05:51:03.803Z,2.25
2019-03-08T05:54:10.586Z,2.17
2019-03-08T05:57:17.503Z,3.15
2019-03-08T06:00:31.484Z,2.67
2019-03-08T06:03:33.568Z,2.27
2019-03-08T06:06:40.543Z,2.17
2019-03-08T06:09:47.592Z,2.33
2019-03-08T06:12:54.516Z,1.52
2019-03-08T06:16:01.389Z,2.22
2019-03-08T06:19:08.254Z,3.98
2019-03-08T06:22:15.130Z,3.42
2019-03-08T06:25:22.012Z,2.00
2019-03-08T06:28:28.890Z,2.67
2019-03-08T06:31:37.190Z,2.50
2019-03-08T06:34:45.687Z,1.65
2019-03-08T06:37:52.586Z,1.90
2019-03-08T06:40:59.474Z,2.40
2019-03-08T06:44:08.877Z,4.17
2019-03-08T06:47:16.167Z,3.30
2019-03-08T06:50:23.043Z,3.90
2019-03-08T06:53:30.027Z,1.98
2019-03-08T06:56:36.909Z,3.67
2019-03-08T06:59:52.170Z,2.35
2019-03-08T07:02:58.954Z,1.50
2019-03-08T07:06:05.936Z,2.90
2019-03-08T07:09:14.455Z,2.02
2019-03-08T07:12:21.366Z,2.10
2019-03-08T07:15:28.250Z,1.90
2019-03-08T07:18:35.265Z,2.37
2019-03-08T07:21:58.128Z,2.12
2019-03-08T07:25:22.336Z,2.75
2019-03-08T07:28:48.459Z,2.15
2019-03-08T07:32:12.942Z,1.82
2019-03-08T07:35:29.373Z,3.85
2019-03-08T07:38:57.986Z,1.95
2019-03-08T07:42:22.314Z,2.50
2019-03-08T07:46:03.657Z,2.80
2019-03-08T07:49:28.340Z,2.45
2019-03-08T07:52:54.134Z,2.90
2019-03-08T07:56:08.566Z,2.33
2019-03-08T07:59:37.892Z,3.20
2019-03-08T08:03:03.747Z,2.67
2019-03-08T08:06:39.682Z,2.25
2019-03-08T08:09:59.853Z,2.37
2019-03-08T08:13:28.742Z,2.60
2019-03-08T08:17:00.512Z,2.42
2019-03-08T08:20:47.676Z,1.60
2019-03-08T08:24:12.334Z,1.95
2019-03-08T08:27:26.112Z,1.80
2019-03-08T08:30:44.225Z,2.55
2019-03-08T08:34:02.479Z,2.00
2019-03-08T08:37:31.068Z,2.50
2019-03-08T08:40:59.964Z,2.33
2019-03-08T08:44:28.551Z,3.05
2019-03-08T08:48:03.890Z,1.87
2019-03-08T08:51:25.344Z,2.65
2019-03-08T08:54:47.378Z,2.00
2019-03-08T08:58:07.144Z,2.50
2019-03-08T09:01:32.934Z,2.00
2019-03-08T09:05:01.854Z,2.95
2019-03-08T09:08:30.392Z,2.20
2019-03-08T09:11:52.493Z,2.00
2019-03-08T09:15:09.646Z,2.85
2019-03-08T09:18:22.699Z,3.08
2019-03-08T09:21:43.850Z,4.55
2019-03-08T09:25:08.767Z,5.67
2019-03-08T09:28:33.293Z,3.65
2019-03-08T09:32:08.186Z,2.33
2019-03-08T09:35:24.263Z,6.45
2019-03-08T09:38:41.371Z,10.63
2019-03-08T09:41:55.558Z,3.42
2019-03-08T09:45:12.184Z,3.55
2019-03-08T09:48:56.286Z,3.80
2019-03-08T09:52:25.016Z,2.65
2019-03-08T09:55:46.536Z,2.22
2019-03-08T09:59:15.188Z,2.52
2019-03-08T10:02:36.337Z,2.67
2019-03-08T10:06:01.003Z,8.23
2019-03-08T10:09:16.263Z,3.50
2019-03-08T10:12:35.933Z,2.40
2019-03-08T10:15:48.582Z,2.20
2019-03-08T10:19:17.032Z,1.85
2019-03-08T10:22:42.936Z,3.22
2019-03-08T10:25:56.516Z,2.00
2019-03-08T10:29:21.508Z,3.08
2019-03-08T10:32:53.649Z,3.45
2019-03-08T10:36:33.387Z,2.75
2019-03-08T10:39:59.192Z,3.02
2019-03-08T10:43:22.689Z,2.22
2019-03-08T10:46:51.621Z,2.67
2019-03-08T10:50:35.923Z,2.52
2019-03-08T10:54:01.764Z,2.60
2019-03-08T10:57:30.388Z,3.33
2019-03-08T11:01:08.470Z,2.27
2019-03-08T11:04:37.877Z,2.10
2019-03-08T11:08:15.590Z,2.65
2019-03-08T11:11:40.483Z,3.20
2019-03-08T11:15:24.985Z,2.72
2019-03-08T11:18:45.490Z,2.62
2019-03-08T11:22:18.163Z,2.47
2019-03-08T11:25:42.229Z,2.47
2019-03-08T11:29:06.572Z,2.30
2019-03-08T11:32:27.640Z,3.05
2019-03-08T11:36:02.430Z,2.27
2019-03-08T11:39:28.460Z,2.42
2019-03-08T11:42:54.138Z,2.00
2019-03-08T11:46:20.014Z,2.45
2019-03-08T11:49:54.927Z,5.00
2019-03-08T11:53:10.423Z,2.83
2019-03-08T11:56:35.009Z,3.15
2019-03-08T11:59:59.883Z,2.62
2019-03-08T12:03:25.756Z,3.02
2019-03-08T12:06:48.133Z,2.25
2019-03-08T12:10:20.172Z,2.62
2019-03-08T12:13:38.217Z,3.22
2019-03-08T12:17:07.023Z,2.45
2019-03-08T12:20:32.923Z,4.00
2019-03-08T12:23:49.074Z,2.05
2019-03-08T12:27:28.202Z,3.15
2019-03-08T12:30:53.957Z,2.35
2019-03-08T12:34:23.282Z,2.37
2019-03-08T12:37:39.953Z,2.15
2019-03-08T12:41:00.990Z,2.37
2019-03-08T12:44:18.291Z,1.90
2019-03-08T12:47:41.361Z,1.67
2019-03-08T12:51:23.740Z,1.82
2019-03-08T12:54:55.708Z,2.20
2019-03-08T12:58:35.768Z,2.60
2019-03-08T13:02:10.626Z,2.58
2019-03-08T13:05:45.641Z,2.20
2019-03-08T13:09:10.667Z,2.50
2019-03-08T13:12:18.160Z,3.42
2019-03-08T13:15:25.072Z,3.75
2019-03-08T13:18:32.008Z,2.75
2019-03-08T13:21:39.025Z,3.37
2019-03-08T13:24:46.493Z,3.10
2019-03-08T13:27:54.375Z,2.42
2019-03-08T13:31:01.137Z,2.67
2019-03-08T13:34:08.043Z,2.22
2019-03-08T13:37:15.175Z,3.67
2019-03-08T13:40:22.824Z,2.50
2019-03-08T13:43:30.863Z,3.27
2019-03-08T13:46:37.809Z,3.47
2019-03-08T13:49:44.730Z,3.52
2019-03-08T13:52:51.718Z,2.83
2019-03-08T13:55:59.712Z,2.15
2019-03-08T13:59:06.880Z,2.58
2019-03-08T14:02:13.812Z,2.80
2019-03-08T14:05:20.680Z,2.00
2019-03-08T14:08:27.681Z,2.20
2019-03-08T14:11:34.591Z,4.33
2019-03-08T14:14:41.612Z,2.87
2019-03-08T14:17:48.637Z,2.80
2019-03-08T14:20:56.543Z,2.30
2019-03-08T14:24:03.545Z,2.85
2019-03-08T14:27:13.566Z,2.45
2019-03-08T14:30:21.612Z,3.05
2019-03-08T14:33:28.548Z,2.42
2019-03-08T14:36:39.050Z,3.42
2019-03-08T14:39:45.525Z,2.20
2019-03-08T14:42:59.426Z,2.05
2019-03-08T14:46:13.276Z,2.67
2019-03-08T14:49:22.881Z,1.95
2019-03-08T14:52:30.750Z,2.40
2019-03-08T14:55:37.671Z,2.90
2019-03-08T14:58:45.710Z,2.83
2019-03-08T15:01:52.757Z,2.40
2019-03-08T15:04:59.622Z,2.52
2019-03-08T15:08:06.544Z,3.02
2019-03-08T15:11:13.558Z,3.35
2019-03-08T15:14:20.500Z,2.33
2019-03-08T15:17:29.093Z,3.50
2019-03-08T15:20:37.778Z,2.50
2019-03-08T15:23:44.794Z,2.65
2019-03-08T15:26:51.858Z,2.47
2019-03-08T15:29:58.759Z,1.70
2019-03-08T15:33:05.656Z,2.33
2019-03-08T15:36:12.707Z,2.10
2019-03-08T15:39:20.250Z,2.85
2019-03-08T15:42:29.827Z,1.85
2019-03-08T15:45:48.389Z,4.03
2019-03-08T15:48:53.164Z,2.40
2019-03-08T15:52:03.596Z,2.83
2019-03-08T15:55:09.655Z,2.52
2019-03-08T15:58:16.623Z,3.62
2019-03-08T16:01:23.424Z,4.05
2019-03-08T16:04:30.293Z,2.55
2019-03-08T16:07:37.302Z,1.80
2019-03-08T16:10:44.165Z,2.98
2019-03-08T16:13:51.002Z,3.33
2019-03-08T16:16:57.895Z,2.50
2019-03-08T16:20:05.476Z,3.98
2019-03-08T16:23:13.968Z,3.35
2019-03-08T16:26:21.381Z,2.65
2019-03-08T16:29:29.192Z,2.67
2019-03-08T16:32:47.843Z,2.47
2019-03-08T16:36:02.063Z,2.22
2019-03-08T16:39:28.711Z,3.00
2019-03-08T16:42:40.526Z,2.27
2019-03-08T16:46:12.348Z,2.00
2019-03-08T16:49:35.952Z,3.30
2019-03-08T16:53:02.471Z,3.12
2019-03-08T16:56:43.712Z,3.12
2019-03-08T16:59:58.675Z,3.50
2019-03-08T17:03:24.506Z,4.17
2019-03-08T17:06:56.506Z,2.98
2019-03-08T17:10:22.278Z,4.17
2019-03-08T17:13:35.700Z,3.62
2019-03-08T17:17:10.386Z,3.55
2019-03-08T17:20:39.773Z,3.30
2019-03-08T17:24:04.273Z,4.75
2019-03-08T17:27:35.695Z,4.10
2019-03-08T17:30:59.378Z,3.58
2019-03-08T17:34:15.788Z,2.65
2019-03-08T17:37:30.564Z,3.02
2019-03-08T17:40:46.139Z,3.87
2019-03-08T17:44:04.104Z,3.35
2019-03-08T17:47:17.203Z,4.25
2019-03-08T17:50:52.770Z,4.60
2019-03-08T17:54:33.510Z,4.30
2019-03-08T17:58:14.608Z,3.50
2019-03-08T18:01:45.684Z,3.87
2019-03-08T18:05:08.063Z,3.47
2019-03-08T18:08:22.790Z,3.00
2019-03-08T18:11:49.899Z,4.17
2019-03-08T18:15:13.646Z,3.72
2019-03-08T18:18:48.752Z,4.58
2019-03-08T18:22:11.159Z,3.62
2019-03-08T18:25:42.794Z,3.40
2019-03-08T18:29:08.847Z,3.95
2019-03-08T18:32:37.049Z,4.55
2019-03-08T18:36:11.549Z,4.00
2019-03-08T18:39:40.476Z,14.70
2019-03-08T18:43:06.527Z,4.15
2019-03-08T18:46:40.186Z,5.25
2019-03-08T18:50:20.709Z,5.65
2019-03-08T18:54:02.092Z,6.05
2019-03-08T18:57:26.944Z,5.50
2019-03-08T19:00:52.752Z,3.90
2019-03-08T19:04:18.492Z,4.75
2019-03-08T19:07:48.107Z,3.37
2019-03-08T19:11:13.899Z,3.90
2019-03-08T19:14:38.511Z,3.42
2019-03-08T19:17:53.199Z,4.70
2019-03-08T19:21:38.416Z,3.15
2019-03-08T19:24:53.304Z,4.28
2019-03-08T19:28:32.113Z,4.05
2019-03-08T19:31:47.936Z,4.45
2019-03-08T19:35:13.777Z,4.70
2019-03-08T19:38:48.684Z,4.53
2019-03-08T19:42:01.386Z,5.47
2019-03-08T19:45:28.424Z,4.83
2019-03-08T19:48:45.755Z,4.15
2019-03-08T19:52:10.401Z,4.62
2019-03-08T19:55:25.966Z,4.53
2019-03-08T19:58:50.473Z,4.35
2019-03-08T20:02:11.882Z,4.08
2019-03-08T20:05:43.612Z,4.67
2019-03-08T20:09:08.995Z,5.05
2019-03-08T20:12:29.047Z,3.30
2019-03-08T20:15:50.474Z,3.20
2019-03-08T20:19:31.355Z,4.12
2019-03-08T20:22:50.142Z,4.05
2019-03-08T20:26:14.816Z,5.85
2019-03-08T20:29:32.134Z,5.40
2019-03-08T20:32:56.424Z,6.65
2019-03-08T20:36:20.981Z,5.30
2019-03-08T20:39:41.836Z,5.62
2019-03-08T20:43:06.019Z,3.87
2019-03-08T20:46:23.832Z,5.25
2019-03-08T20:49:31.104Z,4.87
2019-03-08T20:52:38.050Z,5.92
2019-03-08T20:55:45.433Z,5.45
2019-03-08T20:58:52.361Z,4.55
2019-03-08T21:01:59.543Z,4.60
2019-03-08T21:05:06.891Z,4.83
2019-03-08T21:08:14.030Z,5.28
2019-03-08T21:11:20.900Z,6.10
2019-03-08T21:14:27.830Z,4.70
2019-03-08T21:17:34.657Z,5.37
2019-03-08T21:20:41.538Z,6.95
2019-03-08T21:23:48.377Z,4.28
2019-03-08T21:26:55.195Z,5.60
2019-03-08T21:30:02.236Z,8.00
2019-03-08T21:33:11.955Z,7.05
2019-03-08T21:36:18.964Z,4.70
2019-03-08T21:39:25.761Z,5.08
2019-03-08T21:42:34.089Z,5.53
2019-03-08T21:45:41.200Z,5.65
2019-03-08T21:48:48.341Z,6.83
2019-03-08T21:51:55.289Z,7.00
2019-03-08T21:55:02.410Z,6.75
2019-03-08T21:58:10.839Z,5.80
2019-03-08T22:01:18.755Z,6.05
2019-03-08T22:04:55.358Z,5.60
2019-03-08T22:08:02.191Z,5.85
2019-03-08T22:11:19.099Z,5.72
2019-03-08T22:14:25.954Z,5.55
2019-03-08T22:17:33.072Z,4.58
2019-03-08T22:20:42.467Z,6.30
2019-03-08T22:23:49.296Z,6.20
2019-03-08T22:26:56.224Z,7.83
2019-03-08T22:30:03.202Z,6.22
2019-03-08T22:33:14.192Z,4.92
2019-03-08T22:36:21.518Z,5.67
2019-03-08T22:39:31.054Z,4.50
2019-03-08T22:42:40.014Z,5.45
2019-03-08T22:45:51.155Z,4.20
2019-03-08T22:48:58.809Z,4.03
2019-03-08T22:52:06.158Z,6.30
2019-03-08T22:55:13.903Z,4.33
2019-03-08T22:58:23.114Z,4.50
2019-03-08T23:01:58.277Z,4.85
2019-03-08T23:05:06.164Z,5.12
2019-03-08T23:08:16.510Z,3.92
2019-03-08T23:11:23.920Z,4.05
2019-03-08T23:14:30.958Z,4.05
2019-03-08T23:17:38.821Z,5.85
2019-03-08T23:20:45.835Z,7.10
2019-03-08T23:23:53.191Z,5.22
2019-03-08T23:27:17.920Z,5.83
2019-03-08T23:34:03.040Z,5.08
2019-03-08T23:37:09.998Z,4.35
2019-03-08T23:40:16.898Z,5.87
2019-03-08T23:43:23.645Z,5.00
2019-03-08T23:46:30.787Z,4.65
2019-03-08T23:49:39.192Z,3.40
2019-03-08T23:52:47.149Z,4.65
2019-03-08T23:55:54.017Z,4.40
2019-03-08T23:59:01.493Z,5.33
